Time;durP1;ratioP1;P1;durP2;ratioP2;P2;SDS_P1;SDS_P2;PMS_P1;PMS_P2;Temp;Humidity;BMP_temperature;BMP_pressure;BME280_temperature;BME280_humidity;BME280_pressure;Samples;Min_cycle;Max_cycle;Signal;HPM_P1;HPM_P2
2022/05/01 00:02:09;;;;;;;100.65;44.27;;;;;;;4.35;67.79;99510.53;3944588;87;21010;-83
2022/05/01 00:08:11;;;;;;;74.03;34.05;;;;;;;4.34;67.72;99513.02;3942554;87;21116;-83
2022/05/01 00:14:12;;;;;;;81.40;37.90;;;;;;;4.29;69.10;99505.63;4048483;86;21100;-83
2022/05/01 00:20:15;;;;;;;79.60;36.58;;;;;;;4.27;68.76;99509.20;3981124;87;21057;-84
2022/05/01 00:26:16;;;;;;;77.53;37.23;;;;;;;4.46;69.55;99505.59;3992755;87;21138;-83
2022/05/01 00:32:17;;;;;;;74.05;37.42;;;;;;;4.46;69.65;99509.08;3993924;88;21049;-83
2022/05/01 00:38:18;;;;;;;80.77;40.80;;;;;;;4.25;68.74;99507.37;4007085;86;21163;-83
2022/05/01 00:44:21;;;;;;;74.15;36.77;;;;;;;4.25;69.39;99504.11;4045633;87;21162;-83
2022/05/01 00:50:23;;;;;;;78.05;36.95;;;;;;;4.09;70.16;99496.23;4069429;86;21036;-84
2022/05/01 00:56:24;;;;;;;71.67;35.95;;;;;;;4.06;70.45;99494.16;4074727;86;21084;-83
2022/05/01 01:02:26;;;;;;;66.90;33.40;;;;;;;4.00;70.89;99496.80;4010784;87;22137;-83
2022/05/01 01:08:28;;;;;;;78.52;39.63;;;;;;;4.11;71.78;99493.20;4096490;85;21572;-83
2022/05/01 01:14:30;;;;;;;69.80;36.55;;;;;;;3.98;70.73;99496.86;4086021;86;21042;-83
2022/05/01 01:20:32;;;;;;;67.10;37.63;;;;;;;4.02;71.39;99492.41;4049468;87;21034;-84
2022/05/01 01:26:34;;;;;;;74.77;35.48;;;;;;;4.06;71.73;99494.16;4041386;87;21030;-83
2022/05/01 01:32:39;;;;;;;60.85;32.25;;;;;;;4.01;72.20;99488.13;4046915;87;21133;-84
2022/05/01 01:38:40;;;;;;;73.70;38.10;;;;;;;4.16;72.77;99493.04;3990175;87;21959;-82
2022/05/01 01:44:41;;;;;;;74.87;37.38;;;;;;;3.97;72.04;99494.73;3976296;87;21109;-83
2022/05/01 01:50:45;;;;;;;65.22;35.17;;;;;;;3.78;71.76;99483.96;3970749;88;21034;-82
2022/05/01 01:56:47;;;;;;;60.52;34.00;;;;;;;3.65;72.27;99480.88;3958443;88;21121;-82
2022/05/01 02:02:48;;;;;;;60.33;31.65;;;;;;;3.63;72.99;99483.89;3969142;87;21152;-84
2022/05/01 02:08:49;;;;;;;72.55;37.00;;;;;;;3.72;73.56;99483.88;3965489;88;21091;-83
2022/05/01 02:14:51;;;;;;;56.88;30.20;;;;;;;3.76;73.08;99478.09;3968683;87;21680;-84
2022/05/01 02:27:12;;;;;;;65.40;33.83;;;;;;;3.78;73.41;99478.00;3965146;88;21064;-83
2022/05/01 02:33:13;;;;;;;56.53;28.80;;;;;;;3.48;73.40;99475.44;3963801;87;21101;-83
2022/05/01 02:39:14;;;;;;;48.20;26.85;;;;;;;3.49;74.39;99473.77;4008342;87;21194;-84
2022/05/01 02:45:16;;;;;;;60.40;32.13;;;;;;;3.66;74.70;99476.48;4046263;87;21143;-83
2022/05/01 02:51:17;;;;;;;69.05;35.73;;;;;;;3.66;74.31;99475.69;4048340;86;21119;-83
2022/05/01 02:57:18;;;;;;;66.47;34.85;;;;;;;3.42;73.84;99481.55;4034266;86;21126;-83
2022/05/01 03:03:19;;;;;;;63.92;32.67;;;;;;;3.15;73.93;99475.84;4044967;86;21083;-83
2022/05/01 03:09:21;;;;;;;65.80;33.95;;;;;;;3.00;74.39;99472.78;4047748;86;21680;-82
2022/05/01 03:15:24;;;;;;;60.00;33.15;;;;;;;2.70;73.87;99477.66;4059551;86;21042;-83
2022/05/01 03:27:45;;;;;;;60.90;31.40;;;;;;;2.60;74.99;99471.97;4053683;86;21042;-84
2022/05/01 03:33:47;;;;;;;54.50;30.82;;;;;;;2.55;75.37;99479.44;4072111;86;22059;-84
2022/05/01 03:39:48;;;;;;;62.88;31.87;;;;;;;2.74;76.17;99478.66;4066110;86;21164;-84
2022/05/01 03:45:49;;;;;;;70.40;37.88;;;;;;;2.83;76.48;99478.94;4133517;83;42910;-83
2022/05/01 03:51:50;;;;;;;65.85;35.95;;;;;;;2.73;76.14;99477.03;4175973;84;20991;-83
2022/05/01 03:57:52;;;;;;;52.58;30.15;;;;;;;2.70;76.60;99471.71;4230053;83;21007;-84
2022/05/01 04:03:53;;;;;;;53.87;29.90;;;;;;;2.74;77.46;99467.84;4246859;83;21041;-84
2022/05/01 04:09:55;;;;;;;66.05;33.42;;;;;;;3.07;77.97;99470.39;4231234;83;21078;-83
2022/05/01 04:15:56;;;;;;;52.73;31.68;;;;;;;3.17;77.87;99479.03;4207882;83;21037;-83
2022/05/01 04:21:58;;;;;;;74.62;38.42;;;;;;;3.28;78.36;99480.08;4205863;83;21011;-84
2022/05/01 04:28:05;;;;;;;68.47;35.78;;;;;;;3.49;78.38;99482.44;4201423;83;20971;-83
2022/05/01 04:34:06;;;;;;;53.45;30.20;;;;;;;3.59;78.43;99479.41;4203297;83;21024;-85
2022/05/01 04:40:09;;;;;;;61.10;35.05;;;;;;;3.81;78.67;99490.90;4171519;83;21046;-83
2022/05/01 04:46:10;;;;;;;61.80;34.10;;;;;;;3.96;78.56;99490.41;4099413;85;21047;-84
2022/05/01 04:52:12;;;;;;;65.25;36.85;;;;;;;4.11;78.47;99481.81;4160224;84;21070;-84
2022/05/01 04:58:15;;;;;;;68.95;36.65;;;;;;;4.29;78.37;99478.52;4072923;85;22352;-83
2022/05/01 05:04:16;;;;;;;58.70;33.88;;;;;;;4.51;78.59;99480.45;4178746;84;20986;-84
2022/05/01 05:10:18;;;;;;;65.65;34.05;;;;;;;4.76;77.49;99476.86;4159625;84;21014;-84
2022/05/01 05:16:19;;;;;;;60.08;32.53;;;;;;;5.08;78.19;99482.23;4178357;83;21601;-83
2022/05/01 05:22:21;;;;;;;56.10;32.03;;;;;;;5.44;78.30;99487.13;4159699;84;21070;-84
2022/05/01 05:28:22;;;;;;;57.75;32.58;;;;;;;5.77;78.37;99491.55;4174077;83;21808;-84
2022/05/01 05:34:23;;;;;;;55.23;31.20;;;;;;;6.12;78.56;99494.23;4173423;84;21343;-84
2022/05/01 05:40:24;;;;;;;46.05;28.32;;;;;;;6.58;78.49;99497.81;4235154;83;21016;-84
2022/05/01 05:46:25;;;;;;;46.98;26.82;;;;;;;6.87;77.91;99495.72;4257036;83;22078;-83
2022/05/01 05:52:28;;;;;;;41.68;26.77;;;;;;;7.28;77.61;99490.63;4235288;83;21713;-84
2022/05/01 05:58:29;;;;;;;44.00;26.57;;;;;;;7.94;77.01;99494.59;4259309;83;20986;-86
2022/05/01 06:04:30;;;;;;;48.20;25.90;;;;;;;8.62;75.71;99490.71;4259458;83;21046;-83
2022/05/01 06:10:32;;;;;;;42.85;25.97;;;;;;;8.88;74.79;99500.55;4256522;83;21038;-83
2022/05/01 06:16:33;;;;;;;49.83;26.30;;;;;;;8.97;74.22;99504.48;4254818;83;22322;-83
2022/05/01 06:22:34;;;;;;;44.67;27.22;;;;;;;9.58;74.05;99511.06;4252402;83;21026;-84
2022/05/01 06:28:35;;;;;;;41.83;26.37;;;;;;;10.37;73.67;99516.48;4254316;83;21071;-84
2022/05/01 06:34:38;;;;;;;41.55;26.23;;;;;;;10.93;73.07;99513.48;4253547;83;20998;-84
2022/05/01 06:40:39;;;;;;;39.53;24.02;;;;;;;11.33;72.31;99498.69;4250925;83;21073;-84
2022/05/01 06:46:40;;;;;;;38.35;25.10;;;;;;;11.65;71.53;99498.61;4255209;83;21001;-84
2022/05/01 06:52:42;;;;;;;41.90;24.85;;;;;;;12.05;70.88;99505.66;4259034;83;21050;-85
2022/05/01 06:58:43;;;;;;;36.48;21.97;;;;;;;12.51;70.22;99496.63;4257257;83;21002;-85
2022/05/01 07:04:46;;;;;;;36.38;21.87;;;;;;;12.90;68.43;99505.27;4252170;83;21006;-85
2022/05/01 07:10:48;;;;;;;32.40;22.48;;;;;;;13.06;67.72;99499.75;4244179;83;22071;-84
2022/05/01 07:16:49;;;;;;;32.40;22.77;;;;;;;13.34;66.75;99501.36;4257263;83;20997;-85
2022/05/01 07:22:51;;;;;;;29.95;19.75;;;;;;;13.56;66.24;99499.58;4259728;83;21105;-84
2022/05/01 07:28:52;;;;;;;32.95;20.40;;;;;;;13.77;65.03;99511.52;4245561;83;21559;-84
2022/05/01 07:34:53;;;;;;;33.45;21.20;;;;;;;14.11;64.47;99507.38;4249167;83;21070;-83
2022/05/01 07:40:55;;;;;;;33.58;19.95;;;;;;;14.53;63.68;99500.51;4236019;82;21078;-84
2022/05/01 07:46:57;;;;;;;36.83;20.92;;;;;;;15.02;63.16;99494.51;4228568;83;21488;-86
2022/05/01 07:52:59;;;;;;;30.00;20.23;;;;;;;15.72;61.88;99495.12;4222916;83;21006;-84
2022/05/01 07:59:01;;;;;;;28.12;17.70;;;;;;;16.24;59.30;99493.41;4223453;83;21038;-84
2022/05/01 08:05:03;;;;;;;25.25;16.62;;;;;;;16.81;58.81;99483.08;4184603;84;22135;-85
2022/05/01 08:11:05;;;;;;;23.77;16.07;;;;;;;17.27;58.05;99481.97;4172566;84;21056;-84
2022/05/01 08:17:07;;;;;;;25.32;14.25;;;;;;;17.38;55.19;99473.77;4177069;84;21048;-84
2022/05/01 08:23:25;;;;;;;17.42;12.25;;;;;;;17.33;53.53;99474.20;4225333;83;20968;-83
2022/05/01 08:29:27;;;;;;;15.15;11.22;;;;;;;17.69;50.37;99469.95;4234471;83;21106;-85
2022/05/01 08:35:28;;;;;;;14.83;10.58;;;;;;;17.94;52.28;99464.14;4240848;83;21002;-85
2022/05/01 08:41:31;;;;;;;15.25;11.55;;;;;;;18.05;49.77;99459.27;4239697;83;21420;-83
2022/05/01 08:47:59;;;;;;;13.53;9.90;;;;;;;18.23;50.55;99450.13;4246853;83;21510;-84
2022/05/01 08:54:10;;;;;;;18.25;10.70;;;;;;;18.73;49.16;99444.93;4241711;82;21026;-84
2022/05/01 09:00:13;;;;;;;13.22;8.75;;;;;;;18.85;47.48;99433.88;4232607;83;20990;-84
2022/05/01 09:06:14;;;;;;;16.40;9.88;;;;;;;18.88;45.91;99438.58;4232280;83;21070;-84
2022/05/01 09:18:47;;;;;;;11.00;8.10;;;;;;;19.43;45.86;99426.99;4243804;83;21011;-84
2022/05/01 09:24:53;;;;;;;12.33;6.80;;;;;;;20.02;45.61;99416.73;4233955;83;21982;-84
2022/05/01 09:30:52;;;;;;;13.50;8.33;;;;;;;20.73;43.86;99418.20;4247102;83;21534;-85
2022/05/01 09:36:55;;;;;;;11.10;9.30;;;;;;;21.34;43.72;99413.55;4234572;83;21058;-84
2022/05/01 09:42:56;;;;;;;12.30;8.13;;;;;;;21.79;42.65;99406.59;4240003;83;21074;-84
2022/05/01 09:49:07;;;;;;;12.23;8.60;;;;;;;22.24;39.44;99406.52;4236657;83;21056;-85
2022/05/01 09:55:08;;;;;;;11.18;8.53;;;;;;;22.63;40.66;99400.58;4238087;83;21505;-83
2022/05/01 10:01:16;;;;;;;10.63;7.00;;;;;;;23.29;40.44;99388.48;4238134;83;21650;-85
2022/05/01 10:07:18;;;;;;;11.28;7.30;;;;;;;23.62;37.83;99382.70;4244427;83;21503;-84
2022/05/01 10:13:20;;;;;;;8.48;6.00;;;;;;;23.66;38.21;99384.77;4241243;83;21097;-84
2022/05/01 10:19:26;;;;;;;7.28;5.55;;;;;;;23.81;37.33;99379.61;4236024;83;21066;-84
2022/05/01 10:25:32;;;;;;;6.42;5.28;;;;;;;23.90;35.97;99372.68;4242731;83;21073;-85
2022/05/01 10:38:31;;;;;;;8.87;5.90;;;;;;;23.75;32.88;99364.66;4241880;83;20963;-85
2022/05/01 10:44:39;;;;;;;6.20;5.15;;;;;;;23.76;33.21;99355.03;4219739;83;21109;-84
2022/05/01 10:50:41;;;;;;;11.50;6.60;;;;;;;24.22;33.43;99344.95;4238767;83;22018;-85
2022/05/01 10:56:46;;;;;;;8.38;5.70;;;;;;;24.42;32.41;99340.55;4242026;83;21113;-84
2022/05/01 11:02:52;;;;;;;7.80;5.67;;;;;;;24.58;32.80;99335.33;4232150;83;20992;-85
2022/05/01 11:08:56;;;;;;;9.30;6.42;;;;;;;24.77;32.17;99338.37;4234604;83;21062;-83
2022/05/01 11:15:06;;;;;;;6.87;5.22;;;;;;;24.24;31.84;99327.86;4248865;83;21022;-85
2022/05/01 11:21:26;;;;;;;7.72;6.03;;;;;;;25.10;31.93;99323.99;4239787;83;21058;-84
2022/05/01 11:27:33;;;;;;;6.70;4.90;;;;;;;25.98;31.81;99318.69;4240733;83;21059;-83
2022/05/01 11:33:35;;;;;;;5.22;4.40;;;;;;;25.80;30.85;99312.48;4232224;83;21472;-84
2022/05/01 11:39:53;;;;;;;7.17;4.53;;;;;;;26.17;29.07;99307.58;4249151;81;21118;-83
2022/05/01 11:46:01;;;;;;;7.00;4.25;;;;;;;26.18;30.34;99304.30;4253995;82;21608;-85
2022/05/01 11:52:05;;;;;;;5.42;3.77;;;;;;;25.94;29.43;99304.83;4254615;83;21014;-84
2022/05/01 12:04:35;;;;;;;6.37;3.40;;;;;;;24.70;29.86;99302.91;4258925;83;21621;-84
2022/05/01 12:10:44;;;;;;;6.08;3.58;;;;;;;24.16;29.88;99289.45;4262164;83;21098;-86
2022/05/01 12:16:46;;;;;;;5.55;3.35;;;;;;;23.62;29.49;99295.46;4256477;83;21023;-83
2022/05/01 12:22:48;;;;;;;9.28;3.50;;;;;;;22.96;30.23;99284.63;4262005;83;21361;-83
2022/05/01 12:28:49;;;;;;;5.40;3.80;;;;;;;22.61;30.07;99288.62;4260995;83;21125;-84
2022/05/01 12:34:56;;;;;;;4.62;3.58;;;;;;;22.67;30.11;99270.09;4258804;83;21061;-84
2022/05/01 12:47:42;;;;;;;7.30;4.10;;;;;;;22.40;29.74;99263.56;4244909;83;20216;-84
2022/05/01 12:53:43;;;;;;;15.48;6.80;;;;;;;22.03;30.63;99260.78;4253374;83;21543;-86
2022/05/01 12:59:50;;;;;;;6.47;4.10;;;;;;;21.89;31.09;99257.82;4231365;83;21065;-84
2022/05/01 13:06:11;;;;;;;8.25;4.30;;;;;;;21.44;30.83;99255.12;4251309;82;21042;-85
2022/05/01 13:12:12;;;;;;;9.35;5.00;;;;;;;21.02;30.79;99254.91;4202071;84;21032;-83
2022/05/01 13:18:14;;;;;;;9.33;4.50;;;;;;;20.60;30.77;99253.80;4248252;83;21077;-83
2022/05/01 13:24:32;;;;;;;8.15;4.17;;;;;;;20.41;30.82;99249.11;4269876;82;21110;-84
2022/05/01 13:30:31;;;;;;;8.93;4.97;;;;;;;20.19;30.98;99249.63;4250183;83;21046;-85
2022/05/01 13:36:33;;;;;;;7.35;5.47;;;;;;;19.85;31.66;99237.30;4250632;83;21053;-85
2022/05/01 13:48:57;;;;;;;8.03;4.97;;;;;;;19.34;32.92;99247.10;4231929;83;21058;-85
2022/05/01 13:54:58;;;;;;;7.28;5.03;;;;;;;19.32;34.42;99248.16;4218463;83;21055;-87
2022/05/01 14:01:00;;;;;;;10.32;5.83;;;;;;;19.21;34.50;99257.27;4224154;83;21650;-85
2022/05/01 14:07:02;;;;;;;7.15;4.83;;;;;;;19.03;34.82;99250.49;4169676;84;21043;-84
2022/05/01 14:13:08;;;;;;;16.02;7.55;;;;;;;18.95;34.67;99249.05;4253181;83;21081;-85
2022/05/01 14:19:12;;;;;;;8.58;4.95;;;;;;;18.88;34.99;99245.80;4240948;83;21509;-84
2022/05/01 14:25:14;;;;;;;9.30;6.22;;;;;;;18.79;35.00;99239.23;4240876;83;21030;-85
2022/05/01 14:31:55;;;;;;;7.67;5.62;;;;;;;18.64;35.21;99248.40;4222998;83;21003;-84
2022/05/01 14:38:10;;;;;;;7.50;5.37;;;;;;;18.47;35.18;99241.96;4231119;83;21086;-85
2022/05/01 14:44:14;;;;;;;9.55;4.85;;;;;;;18.29;35.67;99244.19;4227206;83;21100;-83
2022/05/01 14:50:17;;;;;;;8.85;5.05;;;;;;;18.17;36.18;99252.30;4223404;83;21124;-84
2022/05/01 14:56:18;;;;;;;8.60;5.50;;;;;;;17.92;38.17;99256.05;4222281;83;21035;-84
2022/05/01 15:08:42;;;;;;;10.60;5.60;;;;;;;16.99;42.22;99255.58;4158826;84;22081;-84
2022/05/01 15:14:44;;;;;;;6.22;5.20;;;;;;;16.71;41.98;99262.01;4165108;84;20988;-86
2022/05/01 15:20:54;;;;;;;7.15;4.92;;;;;;;16.73;40.41;99249.92;4214340;83;21982;-85
2022/05/01 15:27:05;;;;;;;10.00;5.20;;;;;;;16.89;39.57;99248.20;4154350;84;21534;-88
2022/05/01 15:39:26;;;;;;;8.78;5.72;;;;;;;16.99;39.66;99240.38;4188612;83;21035;-83
2022/05/01 15:45:48;;;;;;;11.48;8.33;;;;;;;16.96;40.09;99238.43;4172509;83;21065;-83
2022/05/01 15:57:54;;;;;;;10.93;7.50;;;;;;;16.87;41.08;99211.08;4178413;84;21595;-83
2022/05/01 16:03:55;;;;;;;8.95;6.33;;;;;;;16.92;41.55;99219.72;4165673;83;21076;-83
2022/05/01 16:10:23;;;;;;;7.95;5.78;;;;;;;16.91;41.48;99222.28;4227978;83;21129;-83
2022/05/01 16:16:39;;;;;;;13.83;7.72;;;;;;;16.98;41.54;99215.89;4203027;83;21517;-84
2022/05/01 16:23:11;;;;;;;10.18;7.20;;;;;;;16.79;43.12;99215.11;4243370;83;21093;-83
2022/05/01 16:29:51;;;;;;;9.95;7.05;;;;;;;16.61;42.81;99215.31;4223403;83;21041;-83
2022/05/01 16:36:05;;;;;;;12.47;8.88;;;;;;;16.62;42.68;99206.40;4221754;83;21681;-82
2022/05/01 16:42:11;;;;;;;12.55;8.80;;;;;;;16.54;42.74;99210.42;4205265;83;21042;-83
2022/05/01 16:48:11;;;;;;;17.48;9.85;;;;;;;16.51;42.82;99210.66;4196842;83;20998;-83
2022/05/01 16:54:13;;;;;;;14.13;9.98;;;;;;;16.47;42.85;99207.73;4198566;83;21104;-82
2022/05/01 17:00:16;;;;;;;11.05;7.72;;;;;;;16.42;42.88;99205.38;4216846;83;21023;-82
2022/05/01 17:06:26;;;;;;;14.00;8.78;;;;;;;16.34;42.93;99207.42;4106490;83;10000197;-85
2022/05/01 17:13:09;;;;;;;13.35;8.73;;;;;;;16.24;43.12;99214.43;4220380;83;21155;-84
2022/05/01 17:19:23;;;;;;;13.58;8.43;;;;;;;16.11;44.10;99218.27;4216326;83;21658;-86
2022/05/01 17:25:29;;;;;;;11.88;8.88;;;;;;;15.94;44.74;99221.95;4176446;84;21022;-84
2022/05/01 17:31:32;;;;;;;14.38;9.00;;;;;;;15.53;46.19;99215.48;4165652;83;20977;-85
2022/05/01 17:37:35;;;;;;;11.85;7.97;;;;;;;15.53;46.19;99215.48;4230853;83;21030;-85
2022/05/01 17:43:37;;;;;;;14.78;8.93;;;;;;;15.38;46.17;99223.63;4223026;83;21067;-85
2022/05/01 17:49:40;;;;;;;11.83;8.00;;;;;;;15.30;47.34;99224.84;4227634;83;21002;-84
2022/05/01 17:55:42;;;;;;;20.12;11.48;;;;;;;15.10;47.27;99234.16;4235867;83;21160;-84
2022/05/01 18:01:58;;;;;;;23.38;12.65;;;;;;;14.90;47.80;99237.17;4224008;83;21491;-84
2022/05/01 18:15:06;;;;;;;16.85;11.60;;;;;;;14.77;48.24;99248.41;4218029;83;21006;-85
2022/05/01 18:21:12;;;;;;;29.03;15.30;;;;;;;14.71;50.07;99262.39;4228209;83;21043;-84
2022/05/01 18:27:21;;;;;;;27.22;15.13;;;;;;;14.53;49.82;99267.15;4229567;82;21227;-84
2022/05/01 18:33:49;;;;;;;34.15;19.50;;;;;;;14.45;50.29;99262.82;4232930;83;21006;-84
2022/05/01 18:40:08;;;;;;;50.40;29.82;;;;;;;14.37;50.98;99266.75;4218364;83;21027;-84
2022/05/01 18:46:12;;;;;;;33.80;20.40;;;;;;;14.23;50.98;99276.93;4232760;83;21023;-83
2022/05/01 18:52:15;;;;;;;37.05;21.05;;;;;;;14.05;51.39;99281.03;4231665;83;21980;-84
2022/05/01 18:58:19;;;;;;;30.48;18.67;;;;;;;13.81;51.91;99282.55;4237730;83;21619;-84
2022/05/01 19:04:20;;;;;;;27.27;18.65;;;;;;;13.61;52.65;99288.77;4230481;83;21520;-84
2022/05/01 19:10:44;;;;;;;32.25;19.62;;;;;;;13.34;53.20;99286.13;4225574;83;21097;-84
2022/05/01 19:16:48;;;;;;;33.55;20.23;;;;;;;13.15;53.27;99287.22;4227192;83;21022;-84
2022/05/01 19:23:21;;;;;;;30.95;19.12;;;;;;;12.92;53.99;99295.48;4235816;83;21085;-84
2022/05/01 19:29:47;;;;;;;32.65;19.37;;;;;;;12.66;54.58;99293.72;4193271;83;21885;-84
2022/05/01 19:36:12;;;;;;;28.67;18.85;;;;;;;12.46;55.01;99290.45;4231811;83;22000;-84
2022/05/01 19:42:34;;;;;;;27.20;18.30;;;;;;;12.24;55.58;99294.75;4231436;83;21029;-84
2022/05/01 19:55:09;;;;;;;29.40;18.48;;;;;;;11.90;56.38;99292.64;4190789;84;20994;-84
2022/05/01 20:01:18;;;;;;;28.50;18.57;;;;;;;11.83;57.30;99301.38;4205939;82;21045;-83
2022/05/01 20:07:22;;;;;;;25.70;17.25;;;;;;;11.72;57.79;99299.09;4145300;85;21029;-84
2022/05/01 20:13:25;;;;;;;33.50;19.05;;;;;;;11.67;58.58;99293.94;4207841;84;21042;-83
2022/05/01 20:19:56;;;;;;;30.35;19.23;;;;;;;11.57;58.40;99291.28;4203121;84;21047;-84
2022/05/01 20:26:12;;;;;;;30.17;19.60;;;;;;;11.39;58.67;99293.00;4249852;83;20990;-84
2022/05/01 20:32:44;;;;;;;31.45;19.92;;;;;;;11.14;58.50;99301.48;4251490;83;21046;-84
2022/05/01 20:39:07;;;;;;;36.05;20.60;;;;;;;10.88;58.83;99294.06;4249892;83;21082;-83
2022/05/01 20:45:10;;;;;;;37.90;22.90;;;;;;;10.77;59.92;99301.33;4183802;83;21111;-86
2022/05/01 20:51:15;;;;;;;36.60;23.45;;;;;;;10.73;60.50;99297.77;4129109;85;21556;-83
2022/05/01 20:57:17;;;;;;;38.63;23.73;;;;;;;10.60;60.72;99295.61;4130473;85;21141;-83
2022/05/01 21:03:20;;;;;;;34.85;21.95;;;;;;;10.43;61.25;99290.65;4132523;85;21610;-84
2022/05/01 21:09:23;;;;;;;38.17;22.65;;;;;;;10.24;61.79;99286.02;4128059;85;21015;-83
2022/05/01 21:15:24;;;;;;;48.70;27.17;;;;;;;10.22;62.87;99284.24;4077444;86;21068;-84
2022/05/01 21:21:26;;;;;;;42.75;25.62;;;;;;;10.12;62.95;99284.84;4038535;87;21612;-84
2022/05/01 21:27:29;;;;;;;45.43;27.00;;;;;;;9.86;62.97;99288.04;4026605;87;21519;-83
2022/05/01 21:33:31;;;;;;;45.33;26.25;;;;;;;9.66;63.19;99291.96;4017457;87;21034;-84
2022/05/01 21:39:33;;;;;;;37.90;22.95;;;;;;;9.44;64.07;99288.02;4022863;87;21048;-84
2022/05/01 21:45:34;;;;;;;38.25;23.70;;;;;;;9.23;64.62;99293.84;4079055;85;21067;-84
2022/05/01 21:51:35;;;;;;;41.92;24.05;;;;;;;8.98;64.61;99290.35;4121748;85;21098;-84
2022/05/01 21:57:36;;;;;;;32.10;22.17;;;;;;;8.86;64.73;99290.48;4121555;85;21574;-84
2022/05/01 22:03:38;;;;;;;39.08;21.80;;;;;;;8.69;65.03;99288.14;4122243;85;20991;-84
2022/05/01 22:09:39;;;;;;;30.57;20.95;;;;;;;8.51;65.57;99284.99;4120539;85;21149;-83
2022/05/01 22:15:41;;;;;;;32.15;21.30;;;;;;;8.49;66.53;99291.38;4123078;85;21062;-85
2022/05/01 22:21:42;;;;;;;30.97;21.12;;;;;;;8.58;67.12;99283.78;4119948;85;21055;-83
2022/05/01 22:27:44;;;;;;;32.65;21.12;;;;;;;8.52;67.65;99285.20;4128112;85;21027;-84
2022/05/01 22:33:46;;;;;;;32.28;20.77;;;;;;;8.45;67.46;99280.16;4125692;85;21123;-83
2022/05/01 22:39:48;;;;;;;28.67;20.70;;;;;;;8.33;68.10;99283.77;4125085;85;21059;-84
2022/05/01 22:45:49;;;;;;;32.42;21.25;;;;;;;8.30;68.21;99273.56;4144752;84;21066;-84
2022/05/01 22:51:51;;;;;;;31.82;20.55;;;;;;;8.19;68.39;99273.84;4203546;83;21007;-83
2022/05/01 22:57:52;;;;;;;34.15;21.65;;;;;;;8.21;69.08;99279.73;4197407;83;21018;-84
2022/05/01 23:03:55;;;;;;;32.83;20.77;;;;;;;8.23;69.01;99281.58;4200542;83;21008;-84
2022/05/01 23:09:57;;;;;;;28.65;20.05;;;;;;;8.19;69.67;99277.93;4201679;83;20956;-85
2022/05/01 23:15:59;;;;;;;33.80;21.77;;;;;;;8.41;70.30;99276.56;4223917;83;21635;-86
2022/05/01 23:22:01;;;;;;;33.33;23.12;;;;;;;8.61;70.33;99272.19;4195363;83;21119;-84
2022/05/01 23:28:03;;;;;;;40.58;25.82;;;;;;;8.46;69.19;99276.27;4187623;83;21503;-84
2022/05/01 23:34:04;;;;;;;35.60;24.57;;;;;;;8.21;69.85;99266.67;4175293;84;21047;-85
2022/05/01 23:40:06;;;;;;;38.05;24.40;;;;;;;8.07;70.59;99263.59;4126857;85;21808;-83
2022/05/01 23:46:08;;;;;;;37.42;25.55;;;;;;;7.96;70.56;99264.13;4234291;83;21054;-83
2022/05/01 23:52:09;;;;;;;39.88;25.68;;;;;;;7.80;70.64;99259.79;4231388;83;21031;-84
2022/05/01 23:58:14;;;;;;;53.60;32.10;;;;;;;7.69;71.48;99254.63;4227550;83;21054;-83
